Southboro, Massachusetts
Current Conditions -  °F | °C
As of 3:03 AM on Monday 24 Nov 2014 (Local Time) from KBED Reporting Station
Overcast Overcast  
Wind Chill: 39°   Ceiling: 800
Heat Index: 39°   Visibility: 10mi
Dew Point: 34°   Wind: 0mph
Humidity: 82%   Direction: NA
Pressure: 30.01"   Gusts: NA
Location:  42.3002°N, 71.5323°W
Report Text: KBED 240803Z AUTO 00000KT 10SM OVC008 04/01 A3001 RMK AO2 CIG 006V011 T00390011 TSNO
Loading
Personal Weather Stations






























Interactive Weather Map New forecast layout! Learn more

10-Day Weather Forecast

Advertisements
Track Severe Weather on mobile